Main page
METAR-TAF:

METAR-TAF

Airports :

RAF Tain

Tain, Scotland

latitude: 57-49N, longitude: 003-58W, elevation: 4 m

Current weather observation

The report was made 22 minutes ago, at 18:50 UTC
Wind 21 kt from the West
Temperature 5°C
Humidity 75%
Pressure 1006 hPa
Visibility 10 km or more

METAR: EGQA 291850Z AUTO 27021KT 9999 // FEW051/// 05/01 Q1006

Time: 19:12 (19:12 UTC)


TAF: missing

Weather observations and forecasts of more than 4000 airports (METAR and TAF reports).

The available stations are represented by yellow and red dots on the map.

Hover mouse over dot to see the name of the station.

Then click to see weather observations and forecasts.

To change the map : click on the green buttons with a black cross to zoom in, on the green button with a dash to zoom out, or on the green arrows for adjacent maps.


METAR-TAF: